createdAt,value
2022-09-16T00:00:16.095Z,0.53
2022-09-16T00:02:44.736Z,0.80
2022-09-16T00:05:16.950Z,0.70
2022-09-16T00:10:31.957Z,0.70
2022-09-16T00:13:00.771Z,0.80
2022-09-16T00:15:32.998Z,0.60
2022-09-16T00:18:04.442Z,0.60
2022-09-16T00:20:32.871Z,0.63
2022-09-16T00:23:04.456Z,0.70
2022-09-16T00:25:38.868Z,0.60
2022-09-16T00:28:06.536Z,0.50
2022-09-16T00:30:37.819Z,0.50
2022-09-16T00:33:09.545Z,0.80
2022-09-16T00:35:39.669Z,0.63
2022-09-16T00:38:12.411Z,0.60
2022-09-16T00:43:54.265Z,0.70
2022-09-16T00:46:44.215Z,0.40
2022-09-16T00:49:17.023Z,0.60
2022-09-16T00:51:50.486Z,0.60
2022-09-16T00:54:23.149Z,0.57
2022-09-16T00:56:54.948Z,0.63
2022-09-16T00:59:28.149Z,0.70
2022-09-16T01:02:01.342Z,0.70
2022-09-16T01:04:33.369Z,0.47
2022-09-16T01:07:05.444Z,0.80
2022-09-16T01:09:45.213Z,0.53
2022-09-16T01:12:15.172Z,0.50
2022-09-16T01:14:58.045Z,0.60
2022-09-16T01:17:46.372Z,0.53
2022-09-16T01:20:39.845Z,0.70
2022-09-16T01:23:29.865Z,0.67
2022-09-16T01:26:20.973Z,0.70
2022-09-16T01:29:12.193Z,0.70
2022-09-16T01:32:01.656Z,0.60
2022-09-16T01:34:34.695Z,0.63
2022-09-16T01:37:17.990Z,0.77
2022-09-16T01:40:07.418Z,0.60
2022-09-16T01:42:54.415Z,0.90
2022-09-16T01:48:18.424Z,0.60
2022-09-16T01:51:12.318Z,0.67
2022-09-16T01:54:01.388Z,0.60
2022-09-16T01:56:45.737Z,0.60
2022-09-16T01:59:21.338Z,0.40
2022-09-16T02:02:19.068Z,0.60
2022-09-16T02:04:59.706Z,0.50
2022-09-16T02:07:40.505Z,0.77
2022-09-16T02:10:28.518Z,0.73
2022-09-16T02:13:06.115Z,0.40
2022-09-16T02:18:28.564Z,0.60
2022-09-16T02:21:02.328Z,0.70
2022-09-16T02:23:46.918Z,0.63
2022-09-16T02:26:22.253Z,0.67
2022-09-16T02:28:53.418Z,0.80
2022-09-16T02:31:26.367Z,0.50
2022-09-16T02:33:59.771Z,0.70
2022-09-16T02:36:32.922Z,0.50
2022-09-16T02:39:10.050Z,0.70
2022-09-16T02:41:50.316Z,0.70
2022-09-16T02:44:25.251Z,0.80
2022-09-16T02:47:02.237Z,0.53
2022-09-16T02:49:59.223Z,0.87
2022-09-16T02:52:48.527Z,0.60
2022-09-16T02:55:39.919Z,0.60
2022-09-16T02:58:14.119Z,0.77
2022-09-16T03:00:50.718Z,0.60
2022-09-16T03:03:22.060Z,0.63
2022-09-16T03:08:57.519Z,0.70
2022-09-16T03:11:45.402Z,0.70
2022-09-16T03:14:29.016Z,0.60
2022-09-16T03:17:18.348Z,0.60
2022-09-16T03:19:54.742Z,0.70
2022-09-16T03:22:43.071Z,0.80
2022-09-16T03:25:33.729Z,0.90
2022-09-16T03:28:11.957Z,0.80
2022-09-16T03:30:50.507Z,0.70
2022-09-16T03:33:30.812Z,1.10
2022-09-16T03:36:16.985Z,0.70
2022-09-16T03:38:50.903Z,0.70
2022-09-16T03:41:21.042Z,0.53
2022-09-16T03:44:03.046Z,0.70
2022-09-16T03:46:35.562Z,0.70
2022-09-16T03:49:05.180Z,0.60
2022-09-16T03:51:37.528Z,0.60
2022-09-16T03:54:11.430Z,0.80
2022-09-16T03:56:39.408Z,0.60
2022-09-16T03:59:12.434Z,0.60
2022-09-16T04:01:44.604Z,0.60
2022-09-16T04:04:16.380Z,0.77
2022-09-16T04:06:45.043Z,0.63
2022-09-16T04:12:22.285Z,0.60
2022-09-16T04:14:53.106Z,0.60
2022-09-16T04:17:24.813Z,0.87
2022-09-16T04:19:55.488Z,0.73
2022-09-16T04:22:27.440Z,0.80
2022-09-16T04:24:59.594Z,0.87
2022-09-16T04:27:27.922Z,1.00
2022-09-16T04:29:59.663Z,0.73
2022-09-16T04:32:31.716Z,0.80
2022-09-16T04:35:04.474Z,0.70
2022-09-16T04:37:32.264Z,0.87
2022-09-16T04:40:04.818Z,0.80
2022-09-16T04:42:37.746Z,0.80
2022-09-16T04:45:07.976Z,0.60
2022-09-16T04:47:59.808Z,0.90
2022-09-16T04:50:29.642Z,0.80
2022-09-16T04:55:47.510Z,0.70
2022-09-16T04:58:27.276Z,0.70
2022-09-16T05:00:59.058Z,0.80
2022-09-16T05:06:20.639Z,0.60
2022-09-16T05:08:52.652Z,0.53
2022-09-16T05:11:26.191Z,0.60
2022-09-16T05:14:02.250Z,0.70
2022-09-16T05:16:33.026Z,1.27
2022-09-16T05:19:08.127Z,2.60
2022-09-16T05:21:41.373Z,3.70
2022-09-16T05:24:13.113Z,4.47
2022-09-16T05:26:45.548Z,5.53
2022-09-16T05:29:16.097Z,5.60
2022-09-16T05:31:49.623Z,5.27
2022-09-16T05:34:24.523Z,5.60
2022-09-16T05:36:54.663Z,5.53
2022-09-16T05:39:24.876Z,5.40
2022-09-16T05:42:18.709Z,5.60
2022-09-16T05:44:48.318Z,5.23
2022-09-16T05:47:15.805Z,5.20
2022-09-16T05:49:49.133Z,5.20
2022-09-16T05:52:20.464Z,5.83
2022-09-16T05:54:53.247Z,4.57
2022-09-16T05:57:26.440Z,4.80
2022-09-16T05:59:54.535Z,4.27
2022-09-16T06:02:26.436Z,4.80
2022-09-16T06:05:06.645Z,4.50
2022-09-16T06:07:35.237Z,3.97
2022-09-16T06:10:06.604Z,4.13
2022-09-16T06:12:38.933Z,3.87
2022-09-16T06:15:08.842Z,3.73
2022-09-16T06:17:38.276Z,4.40
2022-09-16T06:20:17.094Z,4.07
2022-09-16T06:22:46.290Z,3.20
2022-09-16T06:25:18.419Z,3.70
2022-09-16T06:27:50.212Z,2.78
2022-09-16T06:30:26.089Z,2.63
2022-09-16T06:32:58.534Z,2.80
2022-09-16T06:35:27.161Z,2.20
2022-09-16T06:37:59.022Z,2.40
2022-09-16T06:40:29.496Z,2.00
2022-09-16T06:43:00.773Z,1.93
2022-09-16T06:45:32.448Z,2.20
2022-09-16T06:48:03.788Z,1.80
2022-09-16T06:50:33.934Z,1.70
2022-09-16T06:53:06.084Z,1.77
2022-09-16T06:55:40.520Z,2.23
2022-09-16T06:58:12.631Z,1.63
2022-09-16T07:00:44.826Z,1.53
2022-09-16T07:03:16.133Z,1.50
2022-09-16T07:05:48.003Z,1.43
2022-09-16T07:08:16.789Z,1.20
2022-09-16T07:10:48.225Z,1.50
2022-09-16T07:13:22.319Z,1.37
2022-09-16T07:16:11.907Z,1.10
2022-09-16T07:18:42.394Z,1.30
2022-09-16T07:21:23.187Z,1.20
2022-09-16T07:23:56.429Z,1.13
2022-09-16T07:26:29.460Z,1.00
2022-09-16T07:29:01.658Z,0.90
2022-09-16T07:31:31.079Z,1.00
2022-09-16T07:34:06.055Z,0.97
2022-09-16T07:36:36.559Z,1.20
2022-09-16T07:39:04.486Z,1.23
2022-09-16T07:41:35.786Z,1.00
2022-09-16T07:44:05.323Z,0.87
2022-09-16T07:46:38.339Z,1.00
2022-09-16T07:49:09.067Z,0.90
2022-09-16T07:51:45.871Z,1.07
2022-09-16T07:54:19.474Z,1.00
2022-09-16T07:56:49.679Z,0.80
2022-09-16T07:59:20.615Z,0.90
2022-09-16T08:02:24.336Z,1.07
2022-09-16T08:04:54.757Z,1.17
2022-09-16T08:07:24.264Z,0.70
2022-09-16T08:09:55.862Z,1.00
2022-09-16T08:12:25.577Z,0.97
2022-09-16T08:14:55.862Z,0.60
2022-09-16T08:17:40.067Z,0.40
2022-09-16T08:20:12.124Z,1.13
2022-09-16T08:23:10.044Z,0.90
2022-09-16T08:25:44.447Z,0.53
2022-09-16T08:28:25.373Z,0.77
2022-09-16T08:30:56.919Z,0.77
2022-09-16T08:33:27.989Z,0.60
2022-09-16T08:36:11.998Z,0.77
2022-09-16T08:38:40.530Z,0.80
2022-09-16T08:44:08.975Z,0.70
2022-09-16T08:46:56.676Z,0.67
2022-09-16T08:49:28.081Z,0.60
2022-09-16T08:52:00.631Z,0.60
2022-09-16T08:54:38.584Z,0.60
2022-09-16T08:57:12.622Z,0.43
2022-09-16T08:59:45.284Z,0.80
2022-09-16T09:02:45.405Z,0.50
2022-09-16T09:05:17.991Z,0.70
2022-09-16T09:07:58.471Z,0.60
2022-09-16T09:10:45.083Z,0.70
2022-09-16T09:13:37.485Z,0.60
2022-09-16T09:16:21.898Z,0.60
2022-09-16T09:18:50.345Z,0.67
2022-09-16T09:21:37.373Z,0.60
2022-09-16T09:24:18.868Z,0.70
2022-09-16T09:27:02.700Z,0.57
2022-09-16T09:29:49.197Z,0.70
2022-09-16T09:32:46.333Z,0.50
2022-09-16T09:35:38.698Z,0.60
2022-09-16T09:38:23.428Z,0.60
2022-09-16T09:40:58.955Z,0.80
2022-09-16T09:43:46.903Z,0.40
2022-09-16T09:46:26.830Z,0.60
2022-09-16T09:49:15.022Z,0.60
2022-09-16T09:51:46.474Z,0.60
2022-09-16T09:54:33.054Z,0.60
2022-09-16T09:57:20.376Z,0.50
2022-09-16T10:00:22.343Z,0.60
2022-09-16T10:02:51.276Z,0.50
2022-09-16T10:05:38.047Z,0.57
2022-09-16T10:08:14.447Z,0.60
2022-09-16T10:10:59.024Z,0.60
2022-09-16T10:13:33.061Z,0.50
2022-09-16T10:16:14.939Z,0.50
2022-09-16T10:18:45.850Z,0.40
2022-09-16T10:21:20.763Z,0.60
2022-09-16T10:26:45.279Z,0.60
2022-09-16T10:29:25.119Z,0.60
2022-09-16T10:31:53.638Z,0.60
2022-09-16T10:34:42.280Z,0.40
2022-09-16T10:37:16.925Z,0.30
2022-09-16T10:39:54.857Z,0.60
2022-09-16T10:42:30.433Z,0.50
2022-09-16T10:47:56.300Z,0.50
2022-09-16T10:50:26.442Z,0.60
2022-09-16T10:52:57.742Z,0.40
2022-09-16T10:55:35.464Z,0.40
2022-09-16T10:58:13.214Z,0.47
2022-09-16T11:01:12.199Z,0.40
2022-09-16T11:04:00.831Z,0.60
2022-09-16T11:06:34.334Z,0.40
2022-09-16T11:09:21.496Z,0.30
2022-09-16T11:12:10.369Z,0.50
2022-09-16T11:18:01.405Z,0.50
2022-09-16T11:20:47.472Z,0.50
2022-09-16T11:23:21.253Z,0.40
2022-09-16T11:26:15.282Z,0.40
2022-09-16T11:28:51.230Z,0.57
2022-09-16T11:31:37.307Z,0.67
2022-09-16T11:34:21.401Z,0.57
2022-09-16T11:37:03.875Z,0.40
2022-09-16T11:39:52.789Z,0.57
2022-09-16T11:42:35.188Z,0.40
2022-09-16T11:45:30.075Z,0.40
2022-09-16T11:48:07.375Z,0.40
2022-09-16T11:50:56.927Z,0.30
2022-09-16T11:53:47.113Z,0.40
2022-09-16T11:56:30.984Z,0.40
2022-09-16T11:59:07.194Z,0.40
2022-09-16T12:02:03.273Z,0.60
2022-09-16T12:04:58.105Z,0.50
2022-09-16T12:07:45.781Z,0.50
2022-09-16T12:10:22.860Z,0.37
2022-09-16T12:12:56.340Z,0.57
2022-09-16T12:18:43.902Z,0.50
2022-09-16T12:21:31.338Z,0.80
2022-09-16T12:24:21.917Z,0.73
2022-09-16T12:26:59.483Z,0.50
2022-09-16T12:29:55.407Z,0.60
2022-09-16T12:32:32.427Z,0.80
2022-09-16T12:35:08.513Z,1.43
2022-09-16T12:37:59.762Z,1.50
2022-09-16T12:40:36.258Z,1.67
2022-09-16T12:43:24.133Z,1.57
2022-09-16T12:46:13.361Z,1.30
2022-09-16T12:49:11.478Z,1.30
2022-09-16T12:51:58.775Z,1.53
2022-09-16T12:54:51.290Z,1.27
2022-09-16T12:57:27.638Z,1.50
2022-09-16T13:00:10.557Z,1.37
2022-09-16T13:02:41.209Z,1.13
2022-09-16T13:05:19.540Z,1.00
2022-09-16T13:07:55.196Z,0.97
2022-09-16T13:10:57.772Z,0.93
2022-09-16T13:13:41.951Z,1.20
2022-09-16T13:16:13.588Z,1.10
2022-09-16T13:19:05.127Z,1.10
2022-09-16T13:21:46.669Z,0.97
2022-09-16T13:24:40.654Z,0.90
2022-09-16T13:27:27.742Z,0.70
2022-09-16T13:30:16.441Z,1.13
2022-09-16T13:33:08.398Z,1.23
2022-09-16T13:35:41.823Z,0.90
2022-09-16T13:38:27.349Z,0.90
2022-09-16T13:41:00.767Z,0.80
2022-09-16T13:43:43.722Z,1.20
2022-09-16T13:46:21.511Z,0.70
2022-09-16T13:48:59.554Z,1.13
2022-09-16T13:51:28.115Z,0.70
2022-09-16T13:54:06.857Z,0.70
2022-09-16T13:56:55.939Z,0.87
2022-09-16T13:59:36.827Z,0.80
2022-09-16T14:02:30.159Z,0.90
2022-09-16T14:05:18.331Z,0.80
2022-09-16T14:08:04.807Z,0.67
2022-09-16T14:10:46.708Z,0.60
2022-09-16T14:16:07.527Z,0.77
2022-09-16T14:21:23.379Z,0.63
2022-09-16T14:23:56.435Z,0.97
2022-09-16T14:26:28.657Z,0.80
2022-09-16T14:29:07.066Z,0.90
2022-09-16T14:31:36.917Z,0.83
2022-09-16T14:34:17.912Z,0.80
2022-09-16T14:36:48.394Z,0.70
2022-09-16T14:39:20.182Z,0.70
2022-09-16T14:42:09.954Z,0.77
2022-09-16T14:47:55.022Z,0.83
2022-09-16T14:50:29.912Z,0.80
2022-09-16T14:52:59.759Z,0.80
2022-09-16T14:55:32.001Z,1.00
2022-09-16T14:58:04.230Z,0.90
2022-09-16T15:00:51.672Z,0.70
2022-09-16T15:03:31.415Z,0.80
2022-09-16T15:06:02.835Z,0.90
2022-09-16T15:08:34.960Z,0.60
2022-09-16T15:11:46.312Z,0.97
2022-09-16T15:14:21.896Z,0.67
2022-09-16T15:17:00.503Z,0.80
2022-09-16T15:19:35.018Z,1.27
2022-09-16T15:22:04.341Z,0.70
2022-09-16T15:24:36.100Z,0.80
2022-09-16T15:27:09.707Z,0.97
2022-09-16T15:29:51.345Z,1.03
2022-09-16T15:32:33.299Z,2.17
2022-09-16T15:35:26.336Z,2.90
2022-09-16T15:37:54.257Z,2.73
2022-09-16T15:40:31.147Z,2.33
2022-09-16T15:43:13.872Z,2.17
2022-09-16T15:45:46.246Z,2.77
2022-09-16T15:48:23.350Z,2.13
2022-09-16T15:51:04.523Z,2.23
2022-09-16T15:53:37.110Z,2.17
2022-09-16T15:56:24.998Z,2.53
2022-09-16T15:58:58.670Z,1.93
2022-09-16T16:01:53.446Z,1.77
2022-09-16T16:04:27.106Z,1.63
2022-09-16T16:07:06.278Z,1.47
2022-09-16T16:09:36.872Z,1.70
2022-09-16T16:12:21.830Z,1.97
2022-09-16T16:15:04.559Z,1.60
2022-09-16T16:17:38.648Z,1.47
2022-09-16T16:20:10.531Z,1.63
2022-09-16T16:22:44.180Z,1.70
2022-09-16T16:25:16.366Z,1.37
2022-09-16T16:27:48.068Z,1.50
2022-09-16T16:30:19.574Z,1.40
2022-09-16T16:32:51.890Z,1.17
2022-09-16T16:35:23.546Z,1.43
2022-09-16T16:37:53.668Z,1.03
2022-09-16T16:40:26.875Z,1.10
2022-09-16T16:43:01.291Z,1.00
2022-09-16T16:45:33.710Z,1.00
2022-09-16T16:48:02.997Z,1.30
2022-09-16T16:50:35.795Z,0.80
2022-09-16T16:53:10.830Z,1.20
2022-09-16T16:55:44.589Z,1.10
2022-09-16T16:58:18.248Z,1.23
2022-09-16T17:00:50.539Z,1.03
2022-09-16T17:03:20.371Z,1.20
2022-09-16T17:05:49.878Z,1.20
2022-09-16T17:08:22.951Z,1.00
2022-09-16T17:11:02.364Z,1.30
2022-09-16T17:13:33.899Z,0.80
2022-09-16T17:16:06.242Z,0.90
2022-09-16T17:18:41.031Z,1.00
2022-09-16T17:21:12.983Z,1.20
2022-09-16T17:23:45.006Z,1.10
2022-09-16T17:26:20.056Z,1.13
2022-09-16T17:28:52.291Z,1.17
2022-09-16T17:31:28.542Z,1.30
2022-09-16T17:34:06.226Z,1.10
2022-09-16T17:36:37.479Z,1.60
2022-09-16T17:39:10.100Z,1.17
2022-09-16T17:41:41.307Z,1.10
2022-09-16T17:44:13.443Z,1.13
2022-09-16T17:46:48.479Z,1.10
2022-09-16T17:49:22.968Z,1.30
2022-09-16T17:51:58.398Z,1.00
2022-09-16T17:54:29.664Z,1.10
2022-09-16T17:56:59.308Z,0.83
2022-09-16T17:59:29.784Z,0.97
2022-09-16T18:02:00.841Z,1.10
2022-09-16T18:07:14.449Z,1.20
2022-09-16T18:09:47.335Z,1.40
2022-09-16T18:12:16.946Z,0.90
2022-09-16T18:14:50.416Z,1.30
2022-09-16T18:17:20.102Z,1.23
2022-09-16T18:19:50.093Z,1.40
2022-09-16T18:22:24.187Z,0.80
2022-09-16T18:24:55.995Z,1.10
2022-09-16T18:27:23.568Z,0.70
2022-09-16T18:29:56.872Z,1.30
2022-09-16T18:32:28.523Z,1.00
2022-09-16T18:34:58.675Z,1.20
2022-09-16T18:37:30.038Z,0.80
2022-09-16T18:40:01.919Z,0.90
2022-09-16T18:42:36.274Z,1.10
2022-09-16T18:45:07.550Z,1.10
2022-09-16T18:47:38.359Z,1.23
2022-09-16T18:50:08.603Z,1.07
2022-09-16T18:52:42.331Z,1.00
2022-09-16T18:55:12.821Z,1.00
2022-09-16T18:57:43.212Z,1.43
2022-09-16T19:00:13.257Z,1.10
2022-09-16T19:02:43.828Z,1.00
2022-09-16T19:05:25.317Z,0.87
2022-09-16T19:07:53.730Z,1.33
2022-09-16T19:10:23.105Z,1.00
2022-09-16T19:12:51.740Z,0.83
2022-09-16T19:15:26.846Z,1.60
2022-09-16T19:17:56.424Z,1.23
2022-09-16T19:20:29.706Z,1.30
2022-09-16T19:23:02.236Z,0.93
2022-09-16T19:25:33.814Z,1.10
2022-09-16T19:28:02.485Z,1.00
2022-09-16T19:30:31.578Z,1.50
2022-09-16T19:33:04.854Z,1.20
2022-09-16T19:35:40.456Z,1.00
2022-09-16T19:38:09.170Z,1.50
2022-09-16T19:40:38.985Z,1.07
2022-09-16T19:43:07.533Z,1.40
2022-09-16T19:45:35.722Z,1.50
2022-09-16T19:48:09.351Z,1.83
2022-09-16T19:50:44.461Z,1.70
2022-09-16T19:53:19.815Z,1.27
2022-09-16T19:55:51.750Z,1.30
2022-09-16T19:58:25.506Z,1.17
2022-09-16T20:01:07.422Z,1.30
2022-09-16T20:03:53.953Z,1.50
2022-09-16T20:06:31.521Z,1.13
2022-09-16T20:09:03.454Z,0.93
2022-09-16T20:11:36.199Z,1.00
2022-09-16T20:14:08.570Z,1.10
2022-09-16T20:16:41.825Z,1.13
2022-09-16T20:19:15.224Z,1.17
2022-09-16T20:21:48.012Z,1.30
2022-09-16T20:24:23.063Z,1.20
2022-09-16T20:26:55.963Z,1.23
2022-09-16T20:29:25.429Z,1.00
2022-09-16T20:31:56.505Z,0.93
2022-09-16T20:34:29.059Z,1.10
2022-09-16T20:36:59.792Z,0.90
2022-09-16T20:39:29.091Z,1.13
2022-09-16T20:42:00.840Z,1.00
2022-09-16T20:44:29.605Z,1.00
2022-09-16T20:47:01.469Z,0.83
2022-09-16T20:49:35.814Z,1.00
2022-09-16T20:52:07.405Z,1.10
2022-09-16T20:54:36.350Z,0.93
2022-09-16T20:57:06.198Z,1.00
2022-09-16T20:59:34.456Z,0.77
2022-09-16T21:02:09.550Z,0.80
2022-09-16T21:04:46.567Z,1.00
2022-09-16T21:07:19.320Z,1.00
2022-09-16T21:09:51.127Z,1.20
2022-09-16T21:12:19.591Z,0.90
2022-09-16T21:14:52.069Z,0.73
2022-09-16T21:17:25.784Z,0.70
2022-09-16T21:19:57.257Z,0.90
2022-09-16T21:22:28.207Z,0.90
2022-09-16T21:25:00.493Z,0.80
2022-09-16T21:27:33.519Z,0.80
2022-09-16T21:30:03.578Z,0.73
2022-09-16T21:32:35.979Z,0.90
2022-09-16T21:35:05.103Z,0.87
2022-09-16T21:37:37.441Z,0.50
2022-09-16T21:40:07.932Z,1.03
2022-09-16T21:42:39.664Z,0.80
2022-09-16T21:45:11.892Z,0.50
2022-09-16T21:47:45.220Z,0.93
2022-09-16T21:50:15.870Z,0.90
2022-09-16T21:55:30.352Z,0.60
2022-09-16T21:58:11.441Z,0.77
2022-09-16T22:00:43.680Z,0.80
2022-09-16T22:03:14.484Z,0.90
2022-09-16T22:06:07.567Z,0.77
2022-09-16T22:08:40.690Z,0.80
2022-09-16T22:11:15.303Z,0.70
2022-09-16T22:13:47.544Z,0.90
2022-09-16T22:16:20.976Z,0.97
2022-09-16T22:18:56.453Z,0.87
2022-09-16T22:21:27.033Z,0.80
2022-09-16T22:23:56.501Z,0.67
2022-09-16T22:26:26.172Z,0.70
2022-09-16T22:28:56.640Z,0.70
2022-09-16T22:31:40.420Z,0.70
2022-09-16T22:34:09.524Z,0.80
2022-09-16T22:36:50.466Z,0.50
2022-09-16T22:39:24.199Z,0.80
2022-09-16T22:41:54.363Z,0.70
2022-09-16T22:44:26.304Z,0.83
2022-09-16T22:46:53.655Z,0.80
2022-09-16T22:49:24.148Z,0.63
2022-09-16T22:51:56.023Z,0.87
2022-09-16T22:54:27.152Z,1.00
2022-09-16T22:57:01.157Z,0.80
2022-09-16T22:59:29.672Z,0.70
2022-09-16T23:02:01.317Z,0.70
2022-09-16T23:04:34.098Z,0.80
2022-09-16T23:07:03.539Z,0.70
2022-09-16T23:09:37.487Z,0.70
2022-09-16T23:12:09.157Z,0.77
2022-09-16T23:14:40.902Z,0.70
2022-09-16T23:17:12.259Z,0.60
2022-09-16T23:19:40.928Z,1.00
2022-09-16T23:22:09.241Z,0.90
2022-09-16T23:24:40.795Z,0.90
2022-09-16T23:27:12.231Z,0.60
2022-09-16T23:29:39.598Z,0.73
2022-09-16T23:32:08.014Z,0.60
2022-09-16T23:34:39.299Z,0.80
2022-09-16T23:37:10.361Z,0.70
2022-09-16T23:39:43.072Z,0.60
2022-09-16T23:42:17.177Z,0.83
2022-09-16T23:44:52.613Z,0.80
2022-09-16T23:47:24.774Z,0.70
2022-09-16T23:49:55.678Z,0.70
2022-09-16T23:52:31.782Z,0.57
2022-09-16T23:55:02.719Z,0.70
2022-09-16T23:57:33.186Z,0.70
